sensor_id;sensor_type;location;lat;lon;timestamp;pressure;altitude;pressure_sealevel;temperature;humidity
5284;BME280;15377;48.540;9.268;2022-08-21T00:02:21;97547.63;;;13.78;100.00
5284;BME280;15377;48.540;9.268;2022-08-21T00:04:47;97545.53;;;13.99;100.00
5284;BME280;15377;48.540;9.268;2022-08-21T00:07:13;97543.38;;;14.08;100.00
5284;BME280;15377;48.540;9.268;2022-08-21T00:09:39;97547.69;;;14.15;100.00
5284;BME280;15377;48.540;9.268;2022-08-21T00:12:05;97530.53;;;14.11;100.00
5284;BME280;15377;48.540;9.268;2022-08-21T00:14:32;97525.13;;;14.22;100.00
5284;BME280;15377;48.540;9.268;2022-08-21T00:16:58;97536.50;;;14.35;100.00
5284;BME280;15377;48.540;9.268;2022-08-21T00:19:23;97528.78;;;14.13;100.00
5284;BME280;15377;48.540;9.268;2022-08-21T00:21:51;97522.78;;;13.84;100.00
5284;BME280;15377;48.540;9.268;2022-08-21T00:24:17;97520.50;;;13.57;100.00
5284;BME280;15377;48.540;9.268;2022-08-21T00:26:42;97525.50;;;13.53;100.00
5284;BME280;15377;48.540;9.268;2022-08-21T00:29:08;97526.97;;;13.74;100.00
5284;BME280;15377;48.540;9.268;2022-08-21T00:31:33;97528.13;;;13.93;100.00
5284;BME280;15377;48.540;9.268;2022-08-21T00:33:59;97521.88;;;13.98;100.00
5284;BME280;15377;48.540;9.268;2022-08-21T00:36:24;97524.91;;;14.00;100.00
5284;BME280;15377;48.540;9.268;2022-08-21T00:38:49;97515.69;;;13.77;100.00
5284;BME280;15377;48.540;9.268;2022-08-21T00:41:15;97520.06;;;13.64;100.00
5284;BME280;15377;48.540;9.268;2022-08-21T00:43:41;97520.19;;;13.49;100.00
5284;BME280;15377;48.540;9.268;2022-08-21T00:46:06;97534.50;;;13.48;100.00
5284;BME280;15377;48.540;9.268;2022-08-21T00:48:33;97527.09;;;13.34;100.00
5284;BME280;15377;48.540;9.268;2022-08-21T00:51:07;97520.38;;;13.20;100.00
5284;BME280;15377;48.540;9.268;2022-08-21T00:53:35;97520.06;;;13.13;100.00
5284;BME280;15377;48.540;9.268;2022-08-21T00:56:03;97521.25;;;13.06;100.00
5284;BME280;15377;48.540;9.268;2022-08-21T00:58:31;97521.25;;;13.06;100.00
5284;BME280;15377;48.540;9.268;2022-08-21T01:00:57;97503.63;;;12.84;100.00
5284;BME280;15377;48.540;9.268;2022-08-21T01:03:24;97527.53;;;13.07;100.00
5284;BME280;15377;48.540;9.268;2022-08-21T01:05:51;97533.50;;;13.25;100.00
5284;BME280;15377;48.540;9.268;2022-08-21T01:08:18;97512.59;;;13.19;100.00
5284;BME280;15377;48.540;9.268;2022-08-21T01:10:44;97516.88;;;13.20;100.00
5284;BME280;15377;48.540;9.268;2022-08-21T01:13:11;97515.00;;;13.11;100.00
5284;BME280;15377;48.540;9.268;2022-08-21T01:15:43;97524.00;;;13.06;100.00
5284;BME280;15377;48.540;9.268;2022-08-21T01:18:10;97530.44;;;12.98;100.00
5284;BME280;15377;48.540;9.268;2022-08-21T01:20:38;97531.78;;;12.88;100.00
5284;BME280;15377;48.540;9.268;2022-08-21T01:23:05;97529.66;;;12.77;100.00
5284;BME280;15377;48.540;9.268;2022-08-21T01:25:32;97528.66;;;12.80;100.00
5284;BME280;15377;48.540;9.268;2022-08-21T01:28:01;97522.31;;;12.74;100.00
5284;BME280;15377;48.540;9.268;2022-08-21T01:30:30;97507.34;;;12.61;100.00
5284;BME280;15377;48.540;9.268;2022-08-21T01:32:59;97522.53;;;12.71;100.00
5284;BME280;15377;48.540;9.268;2022-08-21T01:35:25;97507.75;;;12.54;100.00
5284;BME280;15377;48.540;9.268;2022-08-21T01:37:51;97498.06;;;12.44;100.00
5284;BME280;15377;48.540;9.268;2022-08-21T01:40:17;97516.16;;;12.45;100.00
5284;BME280;15377;48.540;9.268;2022-08-21T01:42:43;97516.72;;;12.49;100.00
5284;BME280;15377;48.540;9.268;2022-08-21T01:45:10;97520.44;;;12.46;100.00
5284;BME280;15377;48.540;9.268;2022-08-21T01:47:36;97519.88;;;12.42;100.00
5284;BME280;15377;48.540;9.268;2022-08-21T01:50:05;97512.84;;;12.41;100.00
5284;BME280;15377;48.540;9.268;2022-08-21T01:52:30;97496.31;;;12.26;100.00
5284;BME280;15377;48.540;9.268;2022-08-21T01:54:56;97509.53;;;12.37;100.00
5284;BME280;15377;48.540;9.268;2022-08-21T01:57:22;97509.69;;;12.48;100.00
5284;BME280;15377;48.540;9.268;2022-08-21T01:59:47;97505.28;;;12.76;100.00
5284;BME280;15377;48.540;9.268;2022-08-21T02:02:13;97511.56;;;12.96;100.00
5284;BME280;15377;48.540;9.268;2022-08-21T02:04:38;97500.38;;;12.85;100.00
5284;BME280;15377;48.540;9.268;2022-08-21T02:07:04;97500.66;;;12.67;100.00
5284;BME280;15377;48.540;9.268;2022-08-21T02:09:29;97483.09;;;12.50;100.00
5284;BME280;15377;48.540;9.268;2022-08-21T02:11:54;97491.63;;;12.47;100.00
5284;BME280;15377;48.540;9.268;2022-08-21T02:14:20;97497.34;;;12.43;100.00
5284;BME280;15377;48.540;9.268;2022-08-21T02:16:46;97504.19;;;12.33;100.00
5284;BME280;15377;48.540;9.268;2022-08-21T02:19:13;97498.72;;;12.19;100.00
5284;BME280;15377;48.540;9.268;2022-08-21T02:21:40;97500.72;;;12.18;100.00
5284;BME280;15377;48.540;9.268;2022-08-21T02:24:06;97497.69;;;12.16;100.00
5284;BME280;15377;48.540;9.268;2022-08-21T02:26:32;97498.16;;;12.15;100.00
5284;BME280;15377;48.540;9.268;2022-08-21T02:28:58;97477.66;;;12.01;100.00
5284;BME280;15377;48.540;9.268;2022-08-21T02:31:23;97488.28;;;12.08;100.00
5284;BME280;15377;48.540;9.268;2022-08-21T02:33:49;97489.13;;;12.14;100.00
5284;BME280;15377;48.540;9.268;2022-08-21T02:36:15;97479.53;;;12.10;100.00
5284;BME280;15377;48.540;9.268;2022-08-21T02:38:41;97486.19;;;12.18;100.00
5284;BME280;15377;48.540;9.268;2022-08-21T02:41:12;97481.06;;;12.11;100.00
5284;BME280;15377;48.540;9.268;2022-08-21T02:43:38;97479.94;;;12.03;100.00
5284;BME280;15377;48.540;9.268;2022-08-21T02:46:05;97480.91;;;12.00;100.00
5284;BME280;15377;48.540;9.268;2022-08-21T02:48:32;97488.53;;;11.90;100.00
5284;BME280;15377;48.540;9.268;2022-08-21T02:51:08;97484.16;;;11.84;100.00
5284;BME280;15377;48.540;9.268;2022-08-21T02:53:35;97489.47;;;11.87;100.00
5284;BME280;15377;48.540;9.268;2022-08-21T02:56:03;97485.69;;;11.85;100.00
5284;BME280;15377;48.540;9.268;2022-08-21T02:58:35;97488.72;;;11.87;100.00
5284;BME280;15377;48.540;9.268;2022-08-21T03:01:02;97491.19;;;11.85;100.00
5284;BME280;15377;48.540;9.268;2022-08-21T03:03:28;97485.78;;;11.76;100.00
5284;BME280;15377;48.540;9.268;2022-08-21T03:05:54;97490.06;;;11.77;100.00
5284;BME280;15377;48.540;9.268;2022-08-21T03:08:20;97489.69;;;11.69;100.00
5284;BME280;15377;48.540;9.268;2022-08-21T03:10:48;97493.50;;;11.72;100.00
5284;BME280;15377;48.540;9.268;2022-08-21T03:13:15;97496.91;;;11.67;100.00
5284;BME280;15377;48.540;9.268;2022-08-21T03:15:40;97499.56;;;11.61;100.00
5284;BME280;15377;48.540;9.268;2022-08-21T03:18:07;97492.81;;;11.48;100.00
5284;BME280;15377;48.540;9.268;2022-08-21T03:20:34;97488.16;;;11.54;100.00
5284;BME280;15377;48.540;9.268;2022-08-21T03:23:00;97478.66;;;11.55;100.00
5284;BME280;15377;48.540;9.268;2022-08-21T03:25:27;97494.84;;;11.62;100.00
5284;BME280;15377;48.540;9.268;2022-08-21T03:27:53;97485.09;;;11.52;100.00
5284;BME280;15377;48.540;9.268;2022-08-21T03:30:20;97504.69;;;11.54;100.00
5284;BME280;15377;48.540;9.268;2022-08-21T03:32:47;97499.38;;;11.50;100.00
5284;BME280;15377;48.540;9.268;2022-08-21T03:35:13;97496.03;;;11.46;100.00
5284;BME280;15377;48.540;9.268;2022-08-21T03:37:39;97496.50;;;11.30;100.00
5284;BME280;15377;48.540;9.268;2022-08-21T03:40:06;97503.66;;;11.37;100.00
5284;BME280;15377;48.540;9.268;2022-08-21T03:42:32;97479.59;;;11.23;100.00
5284;BME280;15377;48.540;9.268;2022-08-21T03:44:57;97497.84;;;11.35;100.00
5284;BME280;15377;48.540;9.268;2022-08-21T03:47:23;97492.50;;;11.31;100.00
5284;BME280;15377;48.540;9.268;2022-08-21T03:49:49;97475.59;;;11.24;100.00
5284;BME280;15377;48.540;9.268;2022-08-21T03:52:14;97490.44;;;11.41;100.00
5284;BME280;15377;48.540;9.268;2022-08-21T03:54:41;97501.28;;;11.59;100.00
5284;BME280;15377;48.540;9.268;2022-08-21T03:57:07;97498.03;;;11.75;100.00
5284;BME280;15377;48.540;9.268;2022-08-21T03:59:32;97493.47;;;11.86;100.00
5284;BME280;15377;48.540;9.268;2022-08-21T04:02:00;97506.28;;;12.04;100.00
5284;BME280;15377;48.540;9.268;2022-08-21T04:04:27;97510.00;;;11.86;100.00
5284;BME280;15377;48.540;9.268;2022-08-21T04:06:54;97489.31;;;11.62;100.00
5284;BME280;15377;48.540;9.268;2022-08-21T04:09:20;97494.59;;;11.51;100.00
5284;BME280;15377;48.540;9.268;2022-08-21T04:11:46;97509.34;;;11.48;100.00
5284;BME280;15377;48.540;9.268;2022-08-21T04:14:12;97504.84;;;11.36;100.00
5284;BME280;15377;48.540;9.268;2022-08-21T04:16:38;97497.47;;;11.27;100.00
5284;BME280;15377;48.540;9.268;2022-08-21T04:19:04;97512.56;;;11.32;100.00
5284;BME280;15377;48.540;9.268;2022-08-21T04:21:30;97500.97;;;11.28;100.00
5284;BME280;15377;48.540;9.268;2022-08-21T04:23:56;97517.03;;;11.29;100.00
5284;BME280;15377;48.540;9.268;2022-08-21T04:26:21;97511.69;;;11.40;100.00
5284;BME280;15377;48.540;9.268;2022-08-21T04:28:47;97515.03;;;11.44;100.00
5284;BME280;15377;48.540;9.268;2022-08-21T04:31:12;97521.00;;;11.43;100.00
5284;BME280;15377;48.540;9.268;2022-08-21T04:33:38;97528.22;;;11.40;100.00
5284;BME280;15377;48.540;9.268;2022-08-21T04:36:04;97532.72;;;11.38;100.00
5284;BME280;15377;48.540;9.268;2022-08-21T04:38:30;97532.81;;;11.43;100.00
5284;BME280;15377;48.540;9.268;2022-08-21T04:40:57;97531.84;;;11.46;100.00
5284;BME280;15377;48.540;9.268;2022-08-21T04:43:22;97523.03;;;11.42;100.00
5284;BME280;15377;48.540;9.268;2022-08-21T04:45:49;97533.38;;;11.47;100.00
5284;BME280;15377;48.540;9.268;2022-08-21T04:48:18;97541.19;;;11.49;100.00
5284;BME280;15377;48.540;9.268;2022-08-21T04:53:45;97541.44;;;11.51;100.00
5284;BME280;15377;48.540;9.268;2022-08-21T04:56:20;97530.53;;;11.42;100.00
5284;BME280;15377;48.540;9.268;2022-08-21T04:58:47;97539.66;;;11.48;100.00
5284;BME280;15377;48.540;9.268;2022-08-21T05:01:18;97544.34;;;11.56;100.00
5284;BME280;15377;48.540;9.268;2022-08-21T05:03:45;97543.69;;;11.61;100.00
5284;BME280;15377;48.540;9.268;2022-08-21T05:06:14;97544.81;;;11.69;100.00
5284;BME280;15377;48.540;9.268;2022-08-21T05:08:41;97542.16;;;11.75;100.00
5284;BME280;15377;48.540;9.268;2022-08-21T05:11:09;97544.34;;;11.85;100.00
5284;BME280;15377;48.540;9.268;2022-08-21T05:13:35;97546.91;;;11.89;100.00
5284;BME280;15377;48.540;9.268;2022-08-21T05:16:00;97548.03;;;11.97;100.00
5284;BME280;15377;48.540;9.268;2022-08-21T05:18:26;97556.41;;;12.02;100.00
5284;BME280;15377;48.540;9.268;2022-08-21T05:20:51;97553.75;;;12.08;100.00
5284;BME280;15377;48.540;9.268;2022-08-21T05:23:17;97543.66;;;12.05;100.00
5284;BME280;15377;48.540;9.268;2022-08-21T05:25:43;97560.94;;;12.20;100.00
5284;BME280;15377;48.540;9.268;2022-08-21T05:28:09;97554.25;;;12.26;100.00
5284;BME280;15377;48.540;9.268;2022-08-21T05:30:36;97542.28;;;12.29;100.00
5284;BME280;15377;48.540;9.268;2022-08-21T05:33:03;97554.78;;;12.45;100.00
5284;BME280;15377;48.540;9.268;2022-08-21T05:35:29;97551.63;;;12.52;100.00
5284;BME280;15377;48.540;9.268;2022-08-21T05:37:55;97557.03;;;12.61;100.00
5284;BME280;15377;48.540;9.268;2022-08-21T05:40:21;97551.38;;;12.70;100.00
5284;BME280;15377;48.540;9.268;2022-08-21T05:42:47;97526.38;;;12.59;100.00
5284;BME280;15377;48.540;9.268;2022-08-21T05:45:12;97556.09;;;12.84;100.00
5284;BME280;15377;48.540;9.268;2022-08-21T05:47:38;97524.06;;;12.72;100.00
5284;BME280;15377;48.540;9.268;2022-08-21T05:50:05;97558.06;;;12.98;100.00
5284;BME280;15377;48.540;9.268;2022-08-21T05:52:30;97547.34;;;13.05;100.00
5284;BME280;15377;48.540;9.268;2022-08-21T05:54:56;97554.72;;;13.14;100.00
5284;BME280;15377;48.540;9.268;2022-08-21T05:57:21;97542.16;;;13.13;100.00
5284;BME280;15377;48.540;9.268;2022-08-21T05:59:47;97551.41;;;13.30;100.00
5284;BME280;15377;48.540;9.268;2022-08-21T06:02:13;97544.47;;;13.40;100.00
5284;BME280;15377;48.540;9.268;2022-08-21T06:04:39;97556.97;;;13.55;100.00
5284;BME280;15377;48.540;9.268;2022-08-21T06:07:05;97551.31;;;13.70;100.00
5284;BME280;15377;48.540;9.268;2022-08-21T06:09:30;97554.47;;;13.83;100.00
5284;BME280;15377;48.540;9.268;2022-08-21T06:11:56;97541.16;;;13.87;100.00
5284;BME280;15377;48.540;9.268;2022-08-21T06:14:21;97559.19;;;14.08;100.00
5284;BME280;15377;48.540;9.268;2022-08-21T06:16:47;97558.03;;;14.20;100.00
5284;BME280;15377;48.540;9.268;2022-08-21T06:19:12;97564.19;;;14.35;100.00
5284;BME280;15377;48.540;9.268;2022-08-21T06:21:38;97561.06;;;14.53;100.00
5284;BME280;15377;48.540;9.268;2022-08-21T06:24:04;97552.34;;;14.71;100.00
5284;BME280;15377;48.540;9.268;2022-08-21T06:26:30;97550.91;;;14.80;100.00
5284;BME280;15377;48.540;9.268;2022-08-21T06:28:56;97548.97;;;14.97;100.00
5284;BME280;15377;48.540;9.268;2022-08-21T06:31:25;97547.22;;;15.05;100.00
5284;BME280;15377;48.540;9.268;2022-08-21T06:33:51;97532.13;;;15.06;100.00
5284;BME280;15377;48.540;9.268;2022-08-21T06:36:17;97561.44;;;15.29;100.00
5284;BME280;15377;48.540;9.268;2022-08-21T06:38:43;97547.41;;;15.38;100.00
5284;BME280;15377;48.540;9.268;2022-08-21T06:41:09;97538.84;;;15.47;100.00
5284;BME280;15377;48.540;9.268;2022-08-21T06:43:34;97549.97;;;15.64;100.00
5284;BME280;15377;48.540;9.268;2022-08-21T06:46:00;97548.72;;;15.81;100.00
5284;BME280;15377;48.540;9.268;2022-08-21T06:48:25;97558.06;;;15.84;100.00
5284;BME280;15377;48.540;9.268;2022-08-21T06:50:51;97554.56;;;16.05;100.00
5284;BME280;15377;48.540;9.268;2022-08-21T06:53:18;97562.38;;;16.18;100.00
5284;BME280;15377;48.540;9.268;2022-08-21T06:55:44;97568.69;;;16.29;100.00
5284;BME280;15377;48.540;9.268;2022-08-21T06:58:10;97562.66;;;16.42;100.00
5284;BME280;15377;48.540;9.268;2022-08-21T07:00:40;97573.75;;;16.58;100.00
5284;BME280;15377;48.540;9.268;2022-08-21T07:03:05;97577.28;;;16.64;100.00
5284;BME280;15377;48.540;9.268;2022-08-21T07:05:31;97558.81;;;16.67;100.00
5284;BME280;15377;48.540;9.268;2022-08-21T07:07:57;97565.59;;;16.82;100.00
5284;BME280;15377;48.540;9.268;2022-08-21T07:10:26;97567.06;;;17.05;100.00
5284;BME280;15377;48.540;9.268;2022-08-21T07:12:52;97570.03;;;17.18;100.00
5284;BME280;15377;48.540;9.268;2022-08-21T07:15:19;97563.16;;;17.30;100.00
5284;BME280;15377;48.540;9.268;2022-08-21T07:17:44;97576.25;;;17.52;100.00
5284;BME280;15377;48.540;9.268;2022-08-21T07:20:10;97578.41;;;17.70;100.00
5284;BME280;15377;48.540;9.268;2022-08-21T07:22:37;97578.59;;;17.83;100.00
5284;BME280;15377;48.540;9.268;2022-08-21T07:25:05;97563.63;;;17.91;100.00
5284;BME280;15377;48.540;9.268;2022-08-21T07:27:30;97583.25;;;18.04;100.00
5284;BME280;15377;48.540;9.268;2022-08-21T07:29:56;97580.63;;;18.17;100.00
5284;BME280;15377;48.540;9.268;2022-08-21T07:32:22;97569.38;;;18.28;100.00
5284;BME280;15377;48.540;9.268;2022-08-21T07:34:47;97574.69;;;18.37;100.00
5284;BME280;15377;48.540;9.268;2022-08-21T07:37:13;97569.75;;;18.49;100.00
5284;BME280;15377;48.540;9.268;2022-08-21T07:39:38;97568.88;;;18.59;100.00
5284;BME280;15377;48.540;9.268;2022-08-21T07:42:04;97577.50;;;18.61;100.00
5284;BME280;15377;48.540;9.268;2022-08-21T07:44:29;97573.25;;;18.78;100.00
5284;BME280;15377;48.540;9.268;2022-08-21T07:46:55;97582.53;;;18.92;100.00
5284;BME280;15377;48.540;9.268;2022-08-21T07:49:20;97572.41;;;18.89;100.00
5284;BME280;15377;48.540;9.268;2022-08-21T07:51:45;97574.81;;;18.98;100.00
5284;BME280;15377;48.540;9.268;2022-08-21T07:54:11;97589.94;;;19.08;100.00
5284;BME280;15377;48.540;9.268;2022-08-21T07:56:36;97586.31;;;19.13;100.00
5284;BME280;15377;48.540;9.268;2022-08-21T07:59:02;97587.84;;;19.14;100.00
5284;BME280;15377;48.540;9.268;2022-08-21T08:01:28;97582.25;;;19.14;100.00
5284;BME280;15377;48.540;9.268;2022-08-21T08:03:53;97597.03;;;19.33;100.00
5284;BME280;15377;48.540;9.268;2022-08-21T08:06:18;97587.53;;;19.41;100.00
5284;BME280;15377;48.540;9.268;2022-08-21T08:08:44;97585.66;;;19.49;100.00
5284;BME280;15377;48.540;9.268;2022-08-21T08:11:11;97588.41;;;19.55;100.00
5284;BME280;15377;48.540;9.268;2022-08-21T08:13:45;97590.81;;;19.64;100.00
5284;BME280;15377;48.540;9.268;2022-08-21T08:16:11;97591.63;;;19.77;100.00
5284;BME280;15377;48.540;9.268;2022-08-21T08:18:36;97600.00;;;19.96;100.00
5284;BME280;15377;48.540;9.268;2022-08-21T08:21:02;97580.69;;;19.98;100.00
5284;BME280;15377;48.540;9.268;2022-08-21T08:23:28;97592.16;;;20.13;100.00
5284;BME280;15377;48.540;9.268;2022-08-21T08:25:55;97589.19;;;20.24;100.00
5284;BME280;15377;48.540;9.268;2022-08-21T08:28:20;97566.56;;;20.09;100.00
5284;BME280;15377;48.540;9.268;2022-08-21T08:30:47;97586.31;;;20.29;100.00
5284;BME280;15377;48.540;9.268;2022-08-21T08:33:13;97584.06;;;20.28;100.00
5284;BME280;15377;48.540;9.268;2022-08-21T08:35:41;97586.44;;;20.37;100.00
5284;BME280;15377;48.540;9.268;2022-08-21T08:38:07;97575.47;;;20.39;100.00
5284;BME280;15377;48.540;9.268;2022-08-21T08:40:46;97555.25;;;20.33;100.00
5284;BME280;15377;48.540;9.268;2022-08-21T08:43:13;97571.97;;;20.51;100.00
5284;BME280;15377;48.540;9.268;2022-08-21T08:45:41;97573.16;;;20.56;100.00
5284;BME280;15377;48.540;9.268;2022-08-21T08:48:10;97567.38;;;20.67;100.00
5284;BME280;15377;48.540;9.268;2022-08-21T08:51:16;97563.97;;;20.74;100.00
5284;BME280;15377;48.540;9.268;2022-08-21T08:53:45;97557.28;;;20.77;100.00
5284;BME280;15377;48.540;9.268;2022-08-21T08:56:13;97561.31;;;20.94;100.00
5284;BME280;15377;48.540;9.268;2022-08-21T08:58:41;97543.97;;;20.96;100.00
5284;BME280;15377;48.540;9.268;2022-08-21T09:01:15;97548.28;;;21.10;100.00
5284;BME280;15377;48.540;9.268;2022-08-21T09:03:42;97554.31;;;21.14;100.00
5284;BME280;15377;48.540;9.268;2022-08-21T09:16:47;97549.72;;;21.63;100.00
5284;BME280;15377;48.540;9.268;2022-08-21T09:22:03;97542.22;;;21.91;100.00
5284;BME280;15377;48.540;9.268;2022-08-21T09:27:14;97538.47;;;22.09;100.00
5284;BME280;15377;48.540;9.268;2022-08-21T09:29:44;97537.28;;;22.18;100.00
5284;BME280;15377;48.540;9.268;2022-08-21T09:32:15;97540.94;;;22.33;100.00
5284;BME280;15377;48.540;9.268;2022-08-21T09:34:55;97538.38;;;22.56;100.00
5284;BME280;15377;48.540;9.268;2022-08-21T09:37:21;97538.50;;;22.71;100.00
5284;BME280;15377;48.540;9.268;2022-08-21T09:39:46;97540.16;;;22.94;100.00
5284;BME280;15377;48.540;9.268;2022-08-21T09:42:22;97535.56;;;23.39;100.00
5284;BME280;15377;48.540;9.268;2022-08-21T09:44:48;97538.31;;;24.40;100.00
5284;BME280;15377;48.540;9.268;2022-08-21T09:47:13;97539.22;;;25.25;88.63
5284;BME280;15377;48.540;9.268;2022-08-21T09:49:41;97527.13;;;26.26;83.09
5284;BME280;15377;48.540;9.268;2022-08-21T09:52:19;97530.53;;;27.32;77.08
5284;BME280;15377;48.540;9.268;2022-08-21T09:54:50;97533.53;;;28.38;74.00
5284;BME280;15377;48.540;9.268;2022-08-21T09:57:26;97534.19;;;29.10;74.28
5284;BME280;15377;48.540;9.268;2022-08-21T10:02:48;97531.25;;;29.84;62.63
5284;BME280;15377;48.540;9.268;2022-08-21T10:05:19;97526.56;;;30.27;59.51
5284;BME280;15377;48.540;9.268;2022-08-21T10:07:45;97522.59;;;30.51;61.11
5284;BME280;15377;48.540;9.268;2022-08-21T10:10:40;97522.66;;;31.23;58.10
5284;BME280;15377;48.540;9.268;2022-08-21T10:16:18;97506.84;;;31.74;50.06
5284;BME280;15377;48.540;9.268;2022-08-21T10:19:21;97501.72;;;31.40;51.34
5284;BME280;15377;48.540;9.268;2022-08-21T10:22:00;97505.63;;;31.77;49.67
5284;BME280;15377;48.540;9.268;2022-08-21T10:27:18;97489.03;;;32.51;46.67
5284;BME280;15377;48.540;9.268;2022-08-21T10:30:02;97499.03;;;33.21;46.92
5284;BME280;15377;48.540;9.268;2022-08-21T10:35:33;97493.78;;;33.41;41.61
5284;BME280;15377;48.540;9.268;2022-08-21T10:41:23;97502.09;;;34.62;41.58
5284;BME280;15377;48.540;9.268;2022-08-21T10:48:29;97488.78;;;34.80;39.00
5284;BME280;15377;48.540;9.268;2022-08-21T10:51:33;97484.53;;;34.81;39.52
5284;BME280;15377;48.540;9.268;2022-08-21T10:56:33;97487.72;;;34.87;36.87
5284;BME280;15377;48.540;9.268;2022-08-21T11:02:02;97462.06;;;34.62;36.36
5284;BME280;15377;48.540;9.268;2022-08-21T11:04:32;97478.38;;;35.56;36.46
5284;BME280;15377;48.540;9.268;2022-08-21T11:07:09;97470.75;;;34.77;35.21
5284;BME280;15377;48.540;9.268;2022-08-21T11:09:36;97463.00;;;35.20;36.50
5284;BME280;15377;48.540;9.268;2022-08-21T11:12:12;97458.66;;;35.06;35.37
5284;BME280;15377;48.540;9.268;2022-08-21T11:15:03;97459.59;;;35.10;32.81
5284;BME280;15377;48.540;9.268;2022-08-21T11:17:38;97460.91;;;34.94;36.43
5284;BME280;15377;48.540;9.268;2022-08-21T11:20:38;97460.03;;;34.37;33.79
5284;BME280;15377;48.540;9.268;2022-08-21T11:23:06;97459.16;;;35.16;33.26
5284;BME280;15377;48.540;9.268;2022-08-21T11:26:01;97455.91;;;34.54;33.31
5284;BME280;15377;48.540;9.268;2022-08-21T11:28:33;97459.59;;;33.91;33.25
5284;BME280;15377;48.540;9.268;2022-08-21T11:34:08;97452.91;;;34.25;36.16
5284;BME280;15377;48.540;9.268;2022-08-21T11:36:54;97455.88;;;33.88;34.61
5284;BME280;15377;48.540;9.268;2022-08-21T11:39:45;97434.41;;;34.93;35.68
5284;BME280;15377;48.540;9.268;2022-08-21T11:42:34;97441.50;;;35.48;30.42
5284;BME280;15377;48.540;9.268;2022-08-21T11:50:27;97435.63;;;35.60;30.83
5284;BME280;15377;48.540;9.268;2022-08-21T11:52:55;97434.41;;;34.93;34.04
5284;BME280;15377;48.540;9.268;2022-08-21T11:55:32;97419.81;;;34.47;31.72
5284;BME280;15377;48.540;9.268;2022-08-21T11:58:06;97430.72;;;34.64;33.45
5284;BME280;15377;48.540;9.268;2022-08-21T12:00:36;97435.53;;;33.82;32.00
5284;BME280;15377;48.540;9.268;2022-08-21T12:03:10;97436.16;;;32.48;34.00
5284;BME280;15377;48.540;9.268;2022-08-21T12:05:40;97438.56;;;31.85;36.36
5284;BME280;15377;48.540;9.268;2022-08-21T12:08:11;97430.66;;;31.51;35.05
5284;BME280;15377;48.540;9.268;2022-08-21T12:10:46;97430.38;;;30.73;39.44
5284;BME280;15377;48.540;9.268;2022-08-21T12:13:27;97425.88;;;30.18;39.25
5284;BME280;15377;48.540;9.268;2022-08-21T12:16:05;97416.03;;;29.41;41.73
5284;BME280;15377;48.540;9.268;2022-08-21T12:18:31;97426.06;;;28.95;40.78
5284;BME280;15377;48.540;9.268;2022-08-21T12:21:04;97419.16;;;28.60;43.99
5284;BME280;15377;48.540;9.268;2022-08-21T12:23:33;97416.19;;;28.31;43.13
5284;BME280;15377;48.540;9.268;2022-08-21T12:26:23;97413.97;;;27.94;44.39
5284;BME280;15377;48.540;9.268;2022-08-21T12:28:49;97413.50;;;27.61;47.33
5284;BME280;15377;48.540;9.268;2022-08-21T12:31:27;97413.13;;;27.48;45.66
5284;BME280;15377;48.540;9.268;2022-08-21T12:34:01;97394.22;;;27.24;49.12
5284;BME280;15377;48.540;9.268;2022-08-21T12:36:46;97408.34;;;27.24;49.88
5284;BME280;15377;48.540;9.268;2022-08-21T12:39:22;97392.72;;;27.06;50.28
5284;BME280;15377;48.540;9.268;2022-08-21T12:45:00;97399.81;;;26.81;58.02
5284;BME280;15377;48.540;9.268;2022-08-21T12:47:33;97400.84;;;26.51;48.74
5284;BME280;15377;48.540;9.268;2022-08-21T12:50:08;97400.78;;;26.59;54.14
5284;BME280;15377;48.540;9.268;2022-08-21T12:52:38;97382.72;;;26.37;51.04
5284;BME280;15377;48.540;9.268;2022-08-21T12:55:05;97377.69;;;26.36;52.67
5284;BME280;15377;48.540;9.268;2022-08-21T12:57:31;97386.34;;;26.30;51.11
5284;BME280;15377;48.540;9.268;2022-08-21T13:00:02;97396.63;;;26.18;50.07
5284;BME280;15377;48.540;9.268;2022-08-21T13:02:32;97392.63;;;26.04;50.96
5284;BME280;15377;48.540;9.268;2022-08-21T13:05:03;97382.81;;;26.05;51.39
5284;BME280;15377;48.540;9.268;2022-08-21T13:07:32;97389.69;;;25.95;51.93
5284;BME280;15377;48.540;9.268;2022-08-21T13:10:05;97385.88;;;26.00;53.74
5284;BME280;15377;48.540;9.268;2022-08-21T13:12:32;97384.88;;;25.80;52.47
5284;BME280;15377;48.540;9.268;2022-08-21T13:15:02;97395.22;;;25.78;52.83
5284;BME280;15377;48.540;9.268;2022-08-21T13:17:31;97386.69;;;25.93;53.80
5284;BME280;15377;48.540;9.268;2022-08-21T13:20:04;97368.28;;;25.92;58.97
5284;BME280;15377;48.540;9.268;2022-08-21T13:22:29;97383.31;;;25.94;53.72
5284;BME280;15377;48.540;9.268;2022-08-21T13:24:55;97384.78;;;25.95;52.25
5284;BME280;15377;48.540;9.268;2022-08-21T13:27:27;97381.34;;;26.04;54.04
5284;BME280;15377;48.540;9.268;2022-08-21T13:30:20;97377.53;;;26.09;54.51
5284;BME280;15377;48.540;9.268;2022-08-21T13:32:50;97373.69;;;25.97;53.13
5284;BME280;15377;48.540;9.268;2022-08-21T13:35:23;97379.16;;;25.95;53.13
5284;BME280;15377;48.540;9.268;2022-08-21T13:37:51;97377.13;;;25.88;52.99
5284;BME280;15377;48.540;9.268;2022-08-21T13:40:24;97382.59;;;25.86;52.49
5284;BME280;15377;48.540;9.268;2022-08-21T13:42:50;97360.75;;;25.87;55.79
5284;BME280;15377;48.540;9.268;2022-08-21T13:45:24;97376.44;;;26.05;54.01
5284;BME280;15377;48.540;9.268;2022-08-21T13:47:51;97361.03;;;26.06;51.93
5284;BME280;15377;48.540;9.268;2022-08-21T13:50:19;97365.34;;;26.07;56.40
5284;BME280;15377;48.540;9.268;2022-08-21T13:53:04;97372.56;;;26.17;56.72
5284;BME280;15377;48.540;9.268;2022-08-21T13:55:41;97367.34;;;26.14;57.28
5284;BME280;15377;48.540;9.268;2022-08-21T13:58:09;97366.41;;;26.11;57.85
5284;BME280;15377;48.540;9.268;2022-08-21T14:00:48;97366.03;;;25.90;52.87
5284;BME280;15377;48.540;9.268;2022-08-21T14:05:51;97351.69;;;25.96;53.86
5284;BME280;15377;48.540;9.268;2022-08-21T14:10:54;97358.97;;;26.23;54.95
5284;BME280;15377;48.540;9.268;2022-08-21T14:13:44;97363.13;;;26.22;50.68